Tipton, Michigan
Current Conditions -  °F | °C
As of 2:53 AM on Thursday 29 Jan 2015 (Local Time) from KADG Reporting Station
Overcast Overcast  
Wind Chill: 16°   Ceiling: 9500
Heat Index: 27°   Visibility: 10mi
Dew Point: 18°   Wind: 13mph
Humidity: 69%   Direction: 180°S
Pressure: 29.98"   Gusts: NA
Location:  42.02°N, 84.06°W
Report Text: KADG 290753Z AUTO 18011KT 10SM OVC095 M03/M08 A2998 RMK AO2 SLP165 T10281078
Loading
Personal Weather Stations






























Interactive Weather Map New forecast layout! Learn more

10-Day Weather Forecast

Advertisements
Track Severe Weather on mobile